Terminal Aerodrome Forecast
Issued by NWS Corpus Christi, TX

Home | Current Version | Previous Version | Text Only | Print | Product List | Glossary On
Versions: 1 2 3 4 5 6 7 8 9 10 11 12 13 14 15 16
000
FTUS44 KCRP 281700
TAFCRP
TAF
KCRP 281728Z 2818/2918 17014G20KT P6SM FEW030
     FM290000 16010KT P6SM FEW020
     FM291000 18006KT P6SM SCT015
      TEMPO 2910/2914 BKN015
     FM291400 18016G22KT P6SM SCT025=

USA.gov is the U.S. government's official web portal to all federal, state and local government web resources and services.